Flight Track Log - Related Links

Times and Time Zones

All times are in EDT time to prevent confusion due to time zone crossing. See the UAL4093 flight status page for this flight to view local times or setup timezone preferences in your user account.

Time Position Orientation Groundspeed Altitude Reporting Facility
EDT Latitude Longitude Course Direction KTS MPH feet Rate Location/Type
Thu 04:57:19 PM 39.0500 -84.6833 North 163 188 1,300  Level Cincinnati TRACON
Thu 04:58:25 PM 39.0667 -84.7500 288° West 210 242 3,500 2,182 Climbing Cincinnati TRACON
Thu 04:59:31 PM 39.0833 -84.8500 282° West 273 314 6,100 2,455 Climbing Cincinnati TRACON
Thu 05:00:00 PM 39.0292 -84.4180 15° North  Level FlightAware Approximate
Thu 05:00:15 PM 39.1208 -84.8919 319° Northwest 276 318 8,000  Level Indianapolis Center
Thu 05:01:00 PM 39.1338 -84.4000 North  Level FlightAware Approximate
Thu 05:01:17 PM 39.1967 -84.8897 North 304 350 9,800  Level Indianapolis Center
Thu 05:02:00 PM 39.2401 -84.4000 North  Level FlightAware Approximate
Thu 05:02:19 PM 39.2606 -84.8100 44° Northeast 317 365 12,000  Level Indianapolis Center
Thu 05:03:21 PM 39.3350 -84.7067 47° Northeast 329 379 14,600 1,824 Climbing Indianapolis Center
Thu 05:04:24 PM 39.4022 -84.6119 47° Northeast 349 402 15,800 1,200 Climbing Indianapolis Center
Thu 05:05:26 PM 39.4783 -84.5086 46° Northeast 388 447 17,100 1,355 Climbing Indianapolis Center
Thu 05:06:28 PM 39.5594 -84.3989 46° Northeast 415 478 18,600 1,597 Climbing Indianapolis Center
Thu 05:07:30 PM 39.6556 -84.3006 38° Northeast 429 494 20,400 1,839 Climbing Indianapolis Center
Thu 05:08:32 PM 39.7506 -84.2033 38° Northeast 429 494 22,400 1,887 Climbing Indianapolis Center
Thu 05:09:34 PM 39.8422 -84.1064 39° Northeast 422 486 24,300 1,742 Climbing Indianapolis Center
Thu 05:10:36 PM 39.9278 -83.9989 44° Northeast 421 484 26,000 1,742 Climbing Indianapolis Center
Thu 05:11:38 PM 40.0289 -83.8733 44° Northeast 423 487 27,900 1,452 Climbing Indianapolis Center
Thu 05:12:40 PM 40.1172 -83.7625 44° Northeast 430 495 29,000 1,161 Climbing Indianapolis Center
Thu 05:13:42 PM 40.2072 -83.6506 44° Northeast 436 502 30,300 1,161 Climbing Indianapolis Center
Thu 05:14:44 PM 40.2986 -83.5339 44° Northeast 445 512 31,400 1,016 Climbing Indianapolis Center
Thu 05:15:46 PM 40.3925 -83.4153 44° Northeast 458 527 32,400 823 Climbing Indianapolis Center
Thu 05:16:48 PM 40.4878 -83.2936 44° Northeast 469 540 33,100 823 Climbing Indianapolis Center
Thu 05:17:50 PM 40.5850 -83.1683 44° Northeast 482 555 34,100 923 Climbing Indianapolis Center
Thu 05:18:45 PM 40.6825 -83.0447 44° Northeast 472 543 34,900 470 Climbing Cleveland Center
Thu 05:19:45 PM 40.7833 -82.9139 44° Northeast 486 559 35,000 50 Climbing Cleveland Center
Thu 05:20:45 PM 40.8819 -82.7831 45° Northeast 501 577 35,000  Level Cleveland Center
Thu 05:21:45 PM 40.9864 -82.6517 43° Northeast 510 587 35,000  Level Cleveland Center
Thu 05:22:45 PM 41.0803 -82.5281 45° Northeast 516 594 35,000  Level Cleveland Center
Thu 05:23:45 PM 41.1847 -82.3903 45° Northeast 516 594 35,000  Level Cleveland Center
Thu 05:24:45 PM 41.2889 -82.2550 44° Northeast 516 594 35,000  Level Cleveland Center
Thu 05:25:45 PM 41.3786 -82.0997 52° Northeast 523 602 35,000  Level Cleveland Center
Thu 05:26:45 PM 41.4333 -81.9069 69° East 509 586 35,000  Level Cleveland Center
Thu 05:27:45 PM 41.4853 -81.7222 69° East 510 587 35,000  Level Cleveland Center
Thu 05:28:45 PM 41.5347 -81.5428 70° East 519 597 35,000  Level Cleveland Center
Thu 05:29:45 PM 41.5864 -81.3606 69° East 519 597 35,000  Level Cleveland Center
Thu 05:30:45 PM 41.6375 -81.1806 69° East 519 597 35,000  Level Cleveland Center
Thu 05:31:45 PM 41.6839 -81.0169 69° East 524 603 35,000  Level Cleveland Center
Thu 05:33:00 PM 41.6800 -80.8176 94° East  Level FlightAware Approximate
Thu 05:33:45 PM 41.7328 -80.6444 94° East 513 590 35,000  Level Cleveland Center
Thu 05:34:45 PM 41.7203 -80.4553 95° East 502 578 35,000  Level Cleveland Center
Thu 05:35:45 PM 41.7053 -80.2661 96° East 502 578 35,000  Level Cleveland Center
Thu 05:36:45 PM 41.6919 -80.0772 95° East 502 578 35,000  Level Cleveland Center
Thu 05:37:45 PM 41.6764 -79.8714 96° East 507 583 35,000  Level Cleveland Center
Thu 05:38:45 PM 41.6606 -79.6853 96° East 507 583 35,000  Level Cleveland Center
Thu 05:39:45 PM 41.6464 -79.4994 96° East 501 577 35,000  Level Cleveland Center
Thu 05:40:45 PM 41.6297 -79.3108 97° East 501 577 35,000  Level Cleveland Center
Thu 05:41:45 PM 41.6150 -79.1250 96° East 501 577 35,000  Level Cleveland Center
Thu 05:42:45 PM 41.6000 -78.9394 96° East 501 577 35,000  Level Cleveland Center
Thu 05:43:45 PM 41.5825 -78.7483 97° East 501 577 35,000 -127 Level Cleveland Center
Thu 05:45:54 PM 41.5492 -78.3694 97° East 510 587 34,600 -834 Descending New York Center
Thu 05:46:52 PM 41.5342 -78.1792 96° East 505 581 32,400 -1,765 Descending New York Center
Thu 05:47:53 PM 41.5142 -77.9939 98° East 505 581 31,100 -694 Descending New York Center
Thu 05:48:53 PM 41.4897 -77.8111 100° East 505 581 31,000 -50 Descending New York Center
Thu 05:49:54 PM 41.4647 -77.6314 100° East 505 581 31,000 -202 Level New York Center
Thu 05:50:52 PM 41.4378 -77.4486 101° East 505 581 30,600 -814 Descending New York Center
Thu 05:51:52 PM 41.4069 -77.2547 102° East 500 575 29,400 -1,033 Descending New York Center
Thu 05:52:54 PM 41.3831 -77.0781 100° East 490 564 28,500 -934 Descending New York Center
Thu 05:53:54 PM 41.3567 -76.9069 102° East 490 564 27,500 -1,128 Descending New York Center
Thu 05:54:51 PM 41.3292 -76.7525 103° East 482 555 26,300 -1,300 Descending New York Center
Thu 05:55:54 PM 41.2869 -76.5942 109° East 470 541 24,900 -1,610 Descending New York Center
Thu 05:56:54 PM 41.2447 -76.4358 109° East 464 534 23,000 -2,205 Descending New York Center
Thu 05:57:51 PM 41.2019 -76.2778 110° East 459 528 20,600 -2,034 Descending New York Center
Thu 05:58:52 PM 41.1631 -76.1258 109° East 448 516 19,000 -1,339 Descending New York Center
Thu 05:59:52 PM 41.1275 -75.9908 109° East 413 475 17,900 -1,636 Descending New York Center
Thu 06:00:53 PM 41.0878 -75.8503 111° Southeast 380 437 15,700 -1,918 Descending New York Center
Thu 06:01:54 PM 41.0536 -75.7267 110° East 364 419 14,000 -1,388 Descending New York Center
Thu 06:02:54 PM 41.0225 -75.6169 111° Southeast 352 405 12,900 -610 Descending New York Center
Thu 06:03:52 PM 40.9883 -75.4881 109° East 346 398 12,800 -800 Descending New York Center
Thu 06:04:54 PM 40.9531 -75.3731 112° Southeast 336 387 11,300 -934 Descending New York Center
Thu 06:05:54 PM 40.9200 -75.2583 111° Southeast 336 387 10,900 -254 Descending New York Center
Thu 06:06:52 PM 40.8908 -75.1519 110° East 331 381 10,800 -458 Descending New York Center
Thu 06:07:52 PM 40.8603 -75.0731 117° Southeast 288 331 10,000 -900 Descending New York Center
Thu 06:08:52 PM 40.8097 -75.0892 194° South 173 199 9,000 -1,091 Descending New York Center
Thu 06:09:53 PM 40.8172 -75.1664 277° West 168 193 7,800 -1,041 Descending New York Center
Thu 06:10:53 PM 40.8375 -75.2389 290° West 190 219 6,900 -397 Descending New York Center
Thu 06:11:54 PM 40.8911 -75.2508 350° North 173 199 7,000 50 Climbing New York Center
Thu 06:12:52 PM 40.8964 -75.1661 85° East 100 115 7,000  Level New York Center
Thu 06:13:53 PM 40.8706 -75.0819 112° Southeast 136 157 7,000  Level New York Center
Thu 06:14:54 PM 40.8172 -75.1089 201° Southwest 129 148 7,000  Level New York Center
Thu 06:15:52 PM 40.8317 -75.1756 286° West 116 133 7,000  Level New York Center
Thu 06:16:52 PM 40.8542 -75.2375 296° West 186 214 7,000  Level New York Center
Thu 06:17:54 PM 40.9050 -75.2186 16° North 187 215 7,000  Level New York Center
Thu 06:18:52 PM 40.8814 -75.1211 108° East 195 224 7,000  Level New York Center
Thu 06:19:52 PM 40.8575 -75.0344 110° East 234 269 7,000  Level New York Center
Thu 06:20:52 PM 40.8336 -74.9425 109° East 256 295 7,000 -49 Level New York Center
Thu 06:21:54 PM 40.8558 -74.8506 72° East 248 285 6,900 -393 Descending New York Center
Thu 06:22:54 PM 40.8792 -74.7725 68° East 254 292 6,200 -400 Descending New York Center
Thu 06:23:54 PM 40.9075 -74.6753 69° East 259 298 6,100 -102 Descending New York Center
Thu 06:24:52 PM 40.8631 -74.6317 143° Southeast 170 196 6,000  Descending New York Center
Thu 06:25:26 PM 40.8167 -74.6167 166° South 229 264 6,100 -319 Climbing New York TRACON
Thu 06:26:26 PM 40.7667 -74.6000 166° South 222 255 5,500 -550 Descending New York TRACON
Thu 06:27:26 PM 40.7000 -74.6000 180° South 215 247 5,000 -248 Descending New York TRACON
Thu 06:28:27 PM 40.6333 -74.5833 169° South 218 251 5,000 50 Level New York TRACON
Thu 06:29:27 PM 40.5833 -74.5833 180° South 218 251 5,100 50 Climbing New York TRACON
Thu 06:30:27 PM 40.5167 -74.5667 169° South 219 252 5,100 -50 Level New York TRACON
Thu 06:31:27 PM 40.4667 -74.5500 166° South 220 253 5,000 -48 Descending New York TRACON
Thu 06:32:33 PM 40.4000 -74.5333 169° South 220 253 5,000 48 Level New York TRACON
Thu 06:33:33 PM 40.3500 -74.4833 143° Southeast 251 289 5,100 50 Climbing New York TRACON
Thu 06:34:33 PM 40.3667 -74.4000 75° East 245 282 5,100 -450 Level New York TRACON
Thu 06:35:33 PM 40.4000 -74.3333 57° Northeast 219 252 4,200 -789 Descending New York TRACON
Thu 06:36:27 PM 40.4500 -74.3167 14° North 187 215 3,600 -632 Descending New York TRACON
Thu 06:37:27 PM 40.5000 -74.2833 27° Northeast 168 193 3,000 -645 Descending New York TRACON
Thu 06:38:28 PM 40.5333 -74.2667 21° North 171 197 2,300 -425 Descending New York TRACON
Thu 06:39:34 PM 40.5833 -74.2333 27° Northeast 167 192 2,100 -381 Descending New York TRACON
Thu 06:40:34 PM 40.6167 -74.2167 21° North 156 180 1,500 -600 Descending New York TRACON

Login

Don't have an account? Register now (free) for customized features, flight alerts, and more!